sensor_id;sensor_type;location;lat;lon;timestamp;P1;durP1;ratioP1;P2;durP2;ratioP2
16270;SDS011;8243;49.048;8.396;2022-12-04T00:01:48;19.63;;;11.30;;
16270;SDS011;8243;49.048;8.396;2022-12-04T00:04:14;21.53;;;12.07;;
16270;SDS011;8243;49.048;8.396;2022-12-04T00:06:39;22.83;;;13.20;;
16270;SDS011;8243;49.048;8.396;2022-12-04T00:09:05;22.13;;;11.53;;
16270;SDS011;8243;49.048;8.396;2022-12-04T00:11:31;23.97;;;13.60;;
16270;SDS011;8243;49.048;8.396;2022-12-04T00:13:57;24.57;;;12.87;;
16270;SDS011;8243;49.048;8.396;2022-12-04T00:16:25;24.33;;;12.87;;
16270;SDS011;8243;49.048;8.396;2022-12-04T00:18:54;23.90;;;10.27;;
16270;SDS011;8243;49.048;8.396;2022-12-04T00:21:20;20.80;;;12.60;;
16270;SDS011;8243;49.048;8.396;2022-12-04T00:23:46;25.03;;;13.60;;
16270;SDS011;8243;49.048;8.396;2022-12-04T00:26:13;24.33;;;12.63;;
16270;SDS011;8243;49.048;8.396;2022-12-04T00:28:41;23.30;;;13.90;;
16270;SDS011;8243;49.048;8.396;2022-12-04T00:31:08;20.13;;;13.17;;
16270;SDS011;8243;49.048;8.396;2022-12-04T00:33:35;22.07;;;13.60;;
16270;SDS011;8243;49.048;8.396;2022-12-04T00:36:03;20.43;;;11.63;;
16270;SDS011;8243;49.048;8.396;2022-12-04T00:38:32;17.30;;;9.63;;
16270;SDS011;8243;49.048;8.396;2022-12-04T00:40:57;22.40;;;12.57;;
16270;SDS011;8243;49.048;8.396;2022-12-04T00:43:25;20.50;;;13.13;;
16270;SDS011;8243;49.048;8.396;2022-12-04T00:45:51;20.27;;;12.37;;
16270;SDS011;8243;49.048;8.396;2022-12-04T00:48:16;21.83;;;12.57;;
16270;SDS011;8243;49.048;8.396;2022-12-04T00:50:42;19.60;;;12.47;;
16270;SDS011;8243;49.048;8.396;2022-12-04T00:53:08;18.27;;;10.70;;
16270;SDS011;8243;49.048;8.396;2022-12-04T00:55:36;21.00;;;11.50;;
16270;SDS011;8243;49.048;8.396;2022-12-04T00:58:02;18.97;;;11.83;;
16270;SDS011;8243;49.048;8.396;2022-12-04T01:00:28;19.43;;;11.60;;
16270;SDS011;8243;49.048;8.396;2022-12-04T01:02:54;20.50;;;11.70;;
16270;SDS011;8243;49.048;8.396;2022-12-04T01:05:20;20.50;;;12.30;;
16270;SDS011;8243;49.048;8.396;2022-12-04T01:07:45;20.77;;;12.50;;
16270;SDS011;8243;49.048;8.396;2022-12-04T01:10:11;17.23;;;10.57;;
16270;SDS011;8243;49.048;8.396;2022-12-04T01:12:37;19.73;;;10.47;;
16270;SDS011;8243;49.048;8.396;2022-12-04T01:15:02;19.37;;;12.53;;
16270;SDS011;8243;49.048;8.396;2022-12-04T01:17:29;20.40;;;12.17;;
16270;SDS011;8243;49.048;8.396;2022-12-04T01:19:54;20.13;;;13.03;;
16270;SDS011;8243;49.048;8.396;2022-12-04T01:22:20;18.43;;;12.57;;
16270;SDS011;8243;49.048;8.396;2022-12-04T01:24:46;20.10;;;12.63;;
16270;SDS011;8243;49.048;8.396;2022-12-04T01:27:11;23.23;;;12.67;;
16270;SDS011;8243;49.048;8.396;2022-12-04T01:29:37;18.93;;;12.67;;
16270;SDS011;8243;49.048;8.396;2022-12-04T01:32:02;18.93;;;12.77;;
16270;SDS011;8243;49.048;8.396;2022-12-04T01:34:28;19.90;;;12.10;;
16270;SDS011;8243;49.048;8.396;2022-12-04T01:36:54;16.73;;;10.87;;
16270;SDS011;8243;49.048;8.396;2022-12-04T01:39:20;19.40;;;12.00;;
16270;SDS011;8243;49.048;8.396;2022-12-04T01:41:45;19.93;;;12.07;;
16270;SDS011;8243;49.048;8.396;2022-12-04T01:46:43;19.10;;;11.43;;
16270;SDS011;8243;49.048;8.396;2022-12-04T01:49:17;17.00;;;11.77;;
16270;SDS011;8243;49.048;8.396;2022-12-04T01:51:55;19.17;;;11.20;;
16270;SDS011;8243;49.048;8.396;2022-12-04T01:54:26;19.27;;;11.83;;
16270;SDS011;8243;49.048;8.396;2022-12-04T01:56:57;17.43;;;11.90;;
16270;SDS011;8243;49.048;8.396;2022-12-04T01:59:27;19.57;;;12.23;;
16270;SDS011;8243;49.048;8.396;2022-12-04T02:02:08;18.20;;;12.03;;
16270;SDS011;8243;49.048;8.396;2022-12-04T02:04:37;19.17;;;12.67;;
16270;SDS011;8243;49.048;8.396;2022-12-04T02:07:04;16.50;;;11.43;;
16270;SDS011;8243;49.048;8.396;2022-12-04T02:09:30;18.40;;;11.70;;
16270;SDS011;8243;49.048;8.396;2022-12-04T02:17:36;17.33;;;10.20;;
16270;SDS011;8243;49.048;8.396;2022-12-04T02:20:28;19.10;;;12.00;;
16270;SDS011;8243;49.048;8.396;2022-12-04T02:31:27;15.30;;;10.40;;
16270;SDS011;8243;49.048;8.396;2022-12-04T02:33:58;17.07;;;11.00;;
16270;SDS011;8243;49.048;8.396;2022-12-04T02:36:30;16.20;;;10.27;;
16270;SDS011;8243;49.048;8.396;2022-12-04T02:39:03;15.43;;;9.40;;
16270;SDS011;8243;49.048;8.396;2022-12-04T02:41:42;17.30;;;12.00;;
16270;SDS011;8243;49.048;8.396;2022-12-04T02:44:14;15.70;;;10.23;;
16270;SDS011;8243;49.048;8.396;2022-12-04T02:46:44;18.80;;;12.07;;
16270;SDS011;8243;49.048;8.396;2022-12-04T02:49:15;17.57;;;11.53;;
16270;SDS011;8243;49.048;8.396;2022-12-04T02:51:45;16.83;;;11.33;;
16270;SDS011;8243;49.048;8.396;2022-12-04T02:54:21;18.13;;;12.43;;
16270;SDS011;8243;49.048;8.396;2022-12-04T02:57:10;16.63;;;11.40;;
16270;SDS011;8243;49.048;8.396;2022-12-04T02:59:40;18.83;;;12.37;;
16270;SDS011;8243;49.048;8.396;2022-12-04T03:02:09;18.17;;;11.23;;
16270;SDS011;8243;49.048;8.396;2022-12-04T03:04:39;16.30;;;10.83;;
16270;SDS011;8243;49.048;8.396;2022-12-04T03:07:08;18.33;;;11.70;;
16270;SDS011;8243;49.048;8.396;2022-12-04T03:09:58;18.27;;;11.30;;
16270;SDS011;8243;49.048;8.396;2022-12-04T03:12:35;16.80;;;10.93;;
16270;SDS011;8243;49.048;8.396;2022-12-04T03:15:18;16.43;;;11.30;;
16270;SDS011;8243;49.048;8.396;2022-12-04T03:18:36;17.97;;;11.53;;
16270;SDS011;8243;49.048;8.396;2022-12-04T03:21:07;17.07;;;12.27;;
16270;SDS011;8243;49.048;8.396;2022-12-04T03:23:44;16.40;;;11.57;;
16270;SDS011;8243;49.048;8.396;2022-12-04T03:26:36;18.13;;;12.57;;
16270;SDS011;8243;49.048;8.396;2022-12-04T03:29:21;15.33;;;11.03;;
16270;SDS011;8243;49.048;8.396;2022-12-04T03:32:01;17.50;;;11.50;;
16270;SDS011;8243;49.048;8.396;2022-12-04T03:34:33;17.93;;;11.73;;
16270;SDS011;8243;49.048;8.396;2022-12-04T03:37:23;18.33;;;12.03;;
16270;SDS011;8243;49.048;8.396;2022-12-04T03:40:11;18.07;;;12.07;;
16270;SDS011;8243;49.048;8.396;2022-12-04T03:42:43;15.67;;;11.40;;
16270;SDS011;8243;49.048;8.396;2022-12-04T03:48:00;16.90;;;10.67;;
16270;SDS011;8243;49.048;8.396;2022-12-04T03:50:36;18.40;;;12.63;;
16270;SDS011;8243;49.048;8.396;2022-12-04T03:53:07;19.10;;;12.07;;
16270;SDS011;8243;49.048;8.396;2022-12-04T03:55:44;16.30;;;10.43;;
16270;SDS011;8243;49.048;8.396;2022-12-04T03:58:17;18.13;;;11.57;;
16270;SDS011;8243;49.048;8.396;2022-12-04T04:00:47;18.43;;;12.30;;
16270;SDS011;8243;49.048;8.396;2022-12-04T04:03:19;17.40;;;10.40;;
16270;SDS011;8243;49.048;8.396;2022-12-04T04:05:55;18.83;;;11.17;;
16270;SDS011;8243;49.048;8.396;2022-12-04T04:08:26;17.13;;;11.50;;
16270;SDS011;8243;49.048;8.396;2022-12-04T04:11:15;17.33;;;11.53;;
16270;SDS011;8243;49.048;8.396;2022-12-04T04:14:05;16.23;;;11.33;;
16270;SDS011;8243;49.048;8.396;2022-12-04T04:16:57;18.63;;;12.83;;
16270;SDS011;8243;49.048;8.396;2022-12-04T04:19:45;12.83;;;9.13;;
16270;SDS011;8243;49.048;8.396;2022-12-04T04:22:35;19.40;;;11.50;;
16270;SDS011;8243;49.048;8.396;2022-12-04T04:25:24;16.50;;;10.47;;
16270;SDS011;8243;49.048;8.396;2022-12-04T04:27:53;17.57;;;11.67;;
16270;SDS011;8243;49.048;8.396;2022-12-04T04:30:20;16.33;;;11.43;;
16270;SDS011;8243;49.048;8.396;2022-12-04T04:32:55;17.27;;;11.63;;
16270;SDS011;8243;49.048;8.396;2022-12-04T04:38:00;15.40;;;11.20;;
16270;SDS011;8243;49.048;8.396;2022-12-04T04:40:55;19.00;;;11.33;;
16270;SDS011;8243;49.048;8.396;2022-12-04T04:43:31;16.33;;;10.73;;
16270;SDS011;8243;49.048;8.396;2022-12-04T04:46:22;15.63;;;10.97;;
16270;SDS011;8243;49.048;8.396;2022-12-04T04:48:55;16.10;;;10.13;;
16270;SDS011;8243;49.048;8.396;2022-12-04T04:51:25;15.57;;;11.57;;
16270;SDS011;8243;49.048;8.396;2022-12-04T04:53:54;17.50;;;11.47;;
16270;SDS011;8243;49.048;8.396;2022-12-04T04:56:22;17.50;;;11.10;;
16270;SDS011;8243;49.048;8.396;2022-12-04T04:58:49;15.40;;;10.50;;
16270;SDS011;8243;49.048;8.396;2022-12-04T05:01:15;16.40;;;11.00;;
16270;SDS011;8243;49.048;8.396;2022-12-04T05:03:43;13.47;;;8.53;;
16270;SDS011;8243;49.048;8.396;2022-12-04T05:06:09;15.93;;;10.37;;
16270;SDS011;8243;49.048;8.396;2022-12-04T05:08:34;15.17;;;10.77;;
16270;SDS011;8243;49.048;8.396;2022-12-04T05:11:00;15.67;;;10.87;;
16270;SDS011;8243;49.048;8.396;2022-12-04T05:13:27;15.20;;;10.90;;
16270;SDS011;8243;49.048;8.396;2022-12-04T05:18:25;14.70;;;10.87;;
16270;SDS011;8243;49.048;8.396;2022-12-04T05:20:50;15.93;;;10.83;;
16270;SDS011;8243;49.048;8.396;2022-12-04T05:23:16;15.40;;;10.90;;
16270;SDS011;8243;49.048;8.396;2022-12-04T05:25:42;15.07;;;10.03;;
16270;SDS011;8243;49.048;8.396;2022-12-04T05:28:07;15.20;;;10.37;;
16270;SDS011;8243;49.048;8.396;2022-12-04T05:30:33;13.90;;;10.27;;
16270;SDS011;8243;49.048;8.396;2022-12-04T05:32:58;13.73;;;9.70;;
16270;SDS011;8243;49.048;8.396;2022-12-04T05:35:24;14.97;;;10.53;;
16270;SDS011;8243;49.048;8.396;2022-12-04T05:37:49;17.80;;;11.37;;
16270;SDS011;8243;49.048;8.396;2022-12-04T05:40:15;16.80;;;10.93;;
16270;SDS011;8243;49.048;8.396;2022-12-04T05:42:41;15.43;;;10.57;;
16270;SDS011;8243;49.048;8.396;2022-12-04T05:45:06;16.20;;;11.50;;
16270;SDS011;8243;49.048;8.396;2022-12-04T05:47:36;16.37;;;10.47;;
16270;SDS011;8243;49.048;8.396;2022-12-04T05:50:10;15.87;;;9.77;;
16270;SDS011;8243;49.048;8.396;2022-12-04T05:52:37;15.77;;;10.27;;
16270;SDS011;8243;49.048;8.396;2022-12-04T05:55:02;16.50;;;9.97;;
16270;SDS011;8243;49.048;8.396;2022-12-04T05:57:29;13.87;;;9.57;;
16270;SDS011;8243;49.048;8.396;2022-12-04T05:59:54;17.00;;;11.10;;
16270;SDS011;8243;49.048;8.396;2022-12-04T06:02:20;13.30;;;9.47;;
16270;SDS011;8243;49.048;8.396;2022-12-04T06:04:46;19.17;;;11.13;;
16270;SDS011;8243;49.048;8.396;2022-12-04T06:07:11;14.97;;;10.80;;
16270;SDS011;8243;49.048;8.396;2022-12-04T06:09:37;15.10;;;10.27;;
16270;SDS011;8243;49.048;8.396;2022-12-04T06:12:02;17.50;;;10.67;;
16270;SDS011;8243;49.048;8.396;2022-12-04T06:14:28;16.83;;;10.67;;
16270;SDS011;8243;49.048;8.396;2022-12-04T06:16:53;13.60;;;9.50;;
16270;SDS011;8243;49.048;8.396;2022-12-04T06:19:19;15.63;;;10.30;;
16270;SDS011;8243;49.048;8.396;2022-12-04T06:21:47;15.00;;;9.80;;
16270;SDS011;8243;49.048;8.396;2022-12-04T06:24:15;14.77;;;10.00;;
16270;SDS011;8243;49.048;8.396;2022-12-04T06:26:43;13.27;;;9.13;;
16270;SDS011;8243;49.048;8.396;2022-12-04T06:29:10;14.60;;;9.50;;
16270;SDS011;8243;49.048;8.396;2022-12-04T06:31:36;13.80;;;9.23;;
16270;SDS011;8243;49.048;8.396;2022-12-04T06:34:02;13.67;;;8.83;;
16270;SDS011;8243;49.048;8.396;2022-12-04T06:36:29;18.00;;;12.50;;
16270;SDS011;8243;49.048;8.396;2022-12-04T06:38:55;22.43;;;15.80;;
16270;SDS011;8243;49.048;8.396;2022-12-04T06:41:21;14.83;;;9.27;;
16270;SDS011;8243;49.048;8.396;2022-12-04T06:43:48;14.00;;;6.93;;
16270;SDS011;8243;49.048;8.396;2022-12-04T06:46:16;14.37;;;9.60;;
16270;SDS011;8243;49.048;8.396;2022-12-04T06:48:44;12.87;;;8.90;;
16270;SDS011;8243;49.048;8.396;2022-12-04T06:51:11;13.90;;;9.97;;
16270;SDS011;8243;49.048;8.396;2022-12-04T06:53:39;13.53;;;9.13;;
16270;SDS011;8243;49.048;8.396;2022-12-04T06:56:06;14.07;;;9.93;;
16270;SDS011;8243;49.048;8.396;2022-12-04T06:58:34;15.17;;;10.00;;
16270;SDS011;8243;49.048;8.396;2022-12-04T07:01:07;16.43;;;11.00;;
16270;SDS011;8243;49.048;8.396;2022-12-04T07:03:34;14.03;;;9.93;;
16270;SDS011;8243;49.048;8.396;2022-12-04T07:06:13;13.33;;;8.93;;
16270;SDS011;8243;49.048;8.396;2022-12-04T07:08:43;16.57;;;10.93;;
16270;SDS011;8243;49.048;8.396;2022-12-04T07:11:10;14.17;;;9.90;;
16270;SDS011;8243;49.048;8.396;2022-12-04T07:13:36;13.93;;;9.60;;
16270;SDS011;8243;49.048;8.396;2022-12-04T07:16:03;15.70;;;10.17;;
16270;SDS011;8243;49.048;8.396;2022-12-04T07:18:30;13.67;;;9.67;;
16270;SDS011;8243;49.048;8.396;2022-12-04T07:20:56;16.40;;;11.10;;
16270;SDS011;8243;49.048;8.396;2022-12-04T07:23:22;14.80;;;9.90;;
16270;SDS011;8243;49.048;8.396;2022-12-04T07:25:48;15.20;;;10.07;;
16270;SDS011;8243;49.048;8.396;2022-12-04T07:28:13;16.57;;;10.00;;
16270;SDS011;8243;49.048;8.396;2022-12-04T07:30:39;14.30;;;9.97;;
16270;SDS011;8243;49.048;8.396;2022-12-04T07:33:05;15.83;;;9.37;;
16270;SDS011;8243;49.048;8.396;2022-12-04T07:35:30;17.47;;;11.07;;
16270;SDS011;8243;49.048;8.396;2022-12-04T07:37:56;14.40;;;10.00;;
16270;SDS011;8243;49.048;8.396;2022-12-04T07:40:22;15.27;;;10.07;;
16270;SDS011;8243;49.048;8.396;2022-12-04T07:42:47;14.47;;;9.07;;
16270;SDS011;8243;49.048;8.396;2022-12-04T07:45:13;14.73;;;10.43;;
16270;SDS011;8243;49.048;8.396;2022-12-04T07:47:38;14.03;;;9.87;;
16270;SDS011;8243;49.048;8.396;2022-12-04T07:50:05;15.17;;;9.70;;
16270;SDS011;8243;49.048;8.396;2022-12-04T07:52:39;14.03;;;9.93;;
16270;SDS011;8243;49.048;8.396;2022-12-04T07:55:05;14.63;;;10.23;;
16270;SDS011;8243;49.048;8.396;2022-12-04T07:57:31;15.50;;;9.50;;
16270;SDS011;8243;49.048;8.396;2022-12-04T07:59:57;16.60;;;10.40;;
16270;SDS011;8243;49.048;8.396;2022-12-04T08:02:23;13.73;;;9.43;;
16270;SDS011;8243;49.048;8.396;2022-12-04T08:04:49;14.10;;;10.17;;
16270;SDS011;8243;49.048;8.396;2022-12-04T08:07:14;15.70;;;9.87;;
16270;SDS011;8243;49.048;8.396;2022-12-04T08:09:40;14.97;;;9.30;;
16270;SDS011;8243;49.048;8.396;2022-12-04T08:12:06;14.77;;;10.50;;
16270;SDS011;8243;49.048;8.396;2022-12-04T08:14:31;16.93;;;10.60;;
16270;SDS011;8243;49.048;8.396;2022-12-04T08:16:57;14.43;;;10.10;;
16270;SDS011;8243;49.048;8.396;2022-12-04T08:19:22;15.70;;;10.80;;
16270;SDS011;8243;49.048;8.396;2022-12-04T08:21:52;16.13;;;10.70;;
16270;SDS011;8243;49.048;8.396;2022-12-04T08:24:19;14.80;;;10.37;;
16270;SDS011;8243;49.048;8.396;2022-12-04T08:26:44;16.80;;;10.77;;
16270;SDS011;8243;49.048;8.396;2022-12-04T08:29:10;14.80;;;11.07;;
16270;SDS011;8243;49.048;8.396;2022-12-04T08:31:36;15.47;;;9.97;;
16270;SDS011;8243;49.048;8.396;2022-12-04T08:34:02;15.07;;;9.77;;
16270;SDS011;8243;49.048;8.396;2022-12-04T08:36:30;14.43;;;10.40;;
16270;SDS011;8243;49.048;8.396;2022-12-04T08:38:56;16.97;;;11.30;;
16270;SDS011;8243;49.048;8.396;2022-12-04T08:41:22;16.33;;;10.60;;
16270;SDS011;8243;49.048;8.396;2022-12-04T08:43:50;17.53;;;10.93;;
16270;SDS011;8243;49.048;8.396;2022-12-04T08:46:18;13.60;;;9.53;;
16270;SDS011;8243;49.048;8.396;2022-12-04T08:48:44;15.10;;;10.53;;
16270;SDS011;8243;49.048;8.396;2022-12-04T08:51:14;15.07;;;10.37;;
16270;SDS011;8243;49.048;8.396;2022-12-04T08:53:41;13.90;;;10.17;;
16270;SDS011;8243;49.048;8.396;2022-12-04T08:56:07;15.10;;;9.93;;
16270;SDS011;8243;49.048;8.396;2022-12-04T08:58:33;13.73;;;10.50;;
16270;SDS011;8243;49.048;8.396;2022-12-04T09:01:03;15.83;;;10.43;;
16270;SDS011;8243;49.048;8.396;2022-12-04T09:03:33;15.90;;;10.47;;
16270;SDS011;8243;49.048;8.396;2022-12-04T09:05:59;17.63;;;12.77;;
16270;SDS011;8243;49.048;8.396;2022-12-04T09:08:25;14.43;;;10.60;;
16270;SDS011;8243;49.048;8.396;2022-12-04T09:10:51;14.43;;;10.50;;
16270;SDS011;8243;49.048;8.396;2022-12-04T09:13:16;15.63;;;10.40;;
16270;SDS011;8243;49.048;8.396;2022-12-04T09:15:42;17.23;;;11.63;;
16270;SDS011;8243;49.048;8.396;2022-12-04T09:18:07;14.43;;;10.33;;
16270;SDS011;8243;49.048;8.396;2022-12-04T09:20:33;15.10;;;10.73;;
16270;SDS011;8243;49.048;8.396;2022-12-04T09:22:59;14.00;;;10.40;;
16270;SDS011;8243;49.048;8.396;2022-12-04T09:25:25;16.87;;;10.70;;
16270;SDS011;8243;49.048;8.396;2022-12-04T09:27:50;17.47;;;11.23;;
16270;SDS011;8243;49.048;8.396;2022-12-04T09:30:16;18.00;;;12.60;;
16270;SDS011;8243;49.048;8.396;2022-12-04T09:32:42;18.83;;;12.30;;
16270;SDS011;8243;49.048;8.396;2022-12-04T09:35:07;16.97;;;10.97;;
16270;SDS011;8243;49.048;8.396;2022-12-04T09:37:33;16.43;;;9.17;;
16270;SDS011;8243;49.048;8.396;2022-12-04T09:40:00;14.77;;;9.93;;
16270;SDS011;8243;49.048;8.396;2022-12-04T09:45:26;16.43;;;10.87;;
16270;SDS011;8243;49.048;8.396;2022-12-04T09:47:57;15.13;;;9.97;;
16270;SDS011;8243;49.048;8.396;2022-12-04T09:50:27;14.97;;;9.80;;
16270;SDS011;8243;49.048;8.396;2022-12-04T09:58:35;17.73;;;12.07;;
16270;SDS011;8243;49.048;8.396;2022-12-04T10:01:26;15.57;;;10.70;;
16270;SDS011;8243;49.048;8.396;2022-12-04T10:03:56;17.73;;;11.87;;
16270;SDS011;8243;49.048;8.396;2022-12-04T10:06:22;15.27;;;11.07;;
16270;SDS011;8243;49.048;8.396;2022-12-04T10:08:56;16.17;;;10.63;;
16270;SDS011;8243;49.048;8.396;2022-12-04T10:11:32;22.47;;;17.20;;
16270;SDS011;8243;49.048;8.396;2022-12-04T10:14:25;16.17;;;10.67;;
16270;SDS011;8243;49.048;8.396;2022-12-04T10:25:39;13.13;;;8.70;;
16270;SDS011;8243;49.048;8.396;2022-12-04T10:31:03;18.27;;;11.27;;
16270;SDS011;8243;49.048;8.396;2022-12-04T10:33:34;15.47;;;10.83;;
16270;SDS011;8243;49.048;8.396;2022-12-04T10:36:12;14.50;;;10.50;;
16270;SDS011;8243;49.048;8.396;2022-12-04T10:38:51;15.50;;;9.40;;
16270;SDS011;8243;49.048;8.396;2022-12-04T10:44:13;16.87;;;11.10;;
16270;SDS011;8243;49.048;8.396;2022-12-04T10:46:40;14.93;;;10.20;;
16270;SDS011;8243;49.048;8.396;2022-12-04T10:49:16;14.43;;;9.83;;
16270;SDS011;8243;49.048;8.396;2022-12-04T10:51:44;17.10;;;11.83;;
16270;SDS011;8243;49.048;8.396;2022-12-04T10:57:02;13.80;;;9.53;;
16270;SDS011;8243;49.048;8.396;2022-12-04T10:59:32;14.47;;;10.27;;
16270;SDS011;8243;49.048;8.396;2022-12-04T11:02:01;15.43;;;9.67;;
16270;SDS011;8243;49.048;8.396;2022-12-04T11:04:34;15.93;;;10.53;;
16270;SDS011;8243;49.048;8.396;2022-12-04T11:07:04;15.20;;;9.77;;
16270;SDS011;8243;49.048;8.396;2022-12-04T11:09:39;14.67;;;10.67;;
16270;SDS011;8243;49.048;8.396;2022-12-04T11:12:14;15.83;;;11.27;;
16270;SDS011;8243;49.048;8.396;2022-12-04T11:14:46;15.57;;;11.03;;
16270;SDS011;8243;49.048;8.396;2022-12-04T11:17:12;14.70;;;10.77;;
16270;SDS011;8243;49.048;8.396;2022-12-04T11:19:41;14.40;;;10.20;;
16270;SDS011;8243;49.048;8.396;2022-12-04T11:22:19;14.33;;;10.50;;
16270;SDS011;8243;49.048;8.396;2022-12-04T11:24:55;12.77;;;9.03;;
16270;SDS011;8243;49.048;8.396;2022-12-04T11:27:24;15.63;;;11.47;;
16270;SDS011;8243;49.048;8.396;2022-12-04T11:29:56;17.50;;;10.73;;
16270;SDS011;8243;49.048;8.396;2022-12-04T11:32:27;15.33;;;10.83;;
16270;SDS011;8243;49.048;8.396;2022-12-04T11:34:56;14.20;;;9.93;;
16270;SDS011;8243;49.048;8.396;2022-12-04T11:37:50;15.60;;;10.07;;
16270;SDS011;8243;49.048;8.396;2022-12-04T11:40:26;14.63;;;10.20;;
16270;SDS011;8243;49.048;8.396;2022-12-04T11:43:35;15.67;;;10.77;;
16270;SDS011;8243;49.048;8.396;2022-12-04T11:45:52;14.00;;;10.10;;
16270;SDS011;8243;49.048;8.396;2022-12-04T11:48:22;12.40;;;9.33;;
16270;SDS011;8243;49.048;8.396;2022-12-04T11:50:51;15.60;;;10.30;;
16270;SDS011;8243;49.048;8.396;2022-12-04T11:56:19;13.40;;;9.60;;
16270;SDS011;8243;49.048;8.396;2022-12-04T12:02:10;26.20;;;19.93;;
16270;SDS011;8243;49.048;8.396;2022-12-04T12:04:56;13.53;;;10.10;;
16270;SDS011;8243;49.048;8.396;2022-12-04T12:07:51;15.67;;;10.20;;
16270;SDS011;8243;49.048;8.396;2022-12-04T12:10:26;14.17;;;10.03;;
16270;SDS011;8243;49.048;8.396;2022-12-04T12:13:23;14.40;;;10.50;;
16270;SDS011;8243;49.048;8.396;2022-12-04T12:19:13;13.17;;;9.97;;
16270;SDS011;8243;49.048;8.396;2022-12-04T12:22:10;14.03;;;9.43;;
16270;SDS011;8243;49.048;8.396;2022-12-04T12:24:54;13.90;;;9.17;;
16270;SDS011;8243;49.048;8.396;2022-12-04T12:30:20;12.50;;;9.10;;
16270;SDS011;8243;49.048;8.396;2022-12-04T12:33:01;25.30;;;17.60;;
16270;SDS011;8243;49.048;8.396;2022-12-04T12:38:34;13.80;;;10.50;;
16270;SDS011;8243;49.048;8.396;2022-12-04T12:41:26;15.57;;;10.90;;
16270;SDS011;8243;49.048;8.396;2022-12-04T12:46:36;12.47;;;9.47;;
16270;SDS011;8243;49.048;8.396;2022-12-04T12:57:20;16.37;;;10.63;;
16270;SDS011;8243;49.048;8.396;2022-12-04T12:59:56;14.17;;;10.27;;
16270;SDS011;8243;49.048;8.396;2022-12-04T13:02:29;12.63;;;9.30;;
16270;SDS011;8243;49.048;8.396;2022-12-04T13:05:42;13.80;;;9.73;;
16270;SDS011;8243;49.048;8.396;2022-12-04T13:10:47;17.67;;;11.57;;
16270;SDS011;8243;49.048;8.396;2022-12-04T13:13:23;17.13;;;11.43;;
16270;SDS011;8243;49.048;8.396;2022-12-04T13:16:02;16.73;;;12.00;;
16270;SDS011;8243;49.048;8.396;2022-12-04T13:18:36;15.37;;;11.80;;
16270;SDS011;8243;49.048;8.396;2022-12-04T13:21:11;15.47;;;11.47;;
16270;SDS011;8243;49.048;8.396;2022-12-04T13:35:17;14.10;;;10.30;;
16270;SDS011;8243;49.048;8.396;2022-12-04T13:45:58;23.47;;;13.53;;
16270;SDS011;8243;49.048;8.396;2022-12-04T13:48:30;19.27;;;13.50;;
16270;SDS011;8243;49.048;8.396;2022-12-04T13:51:04;17.60;;;12.90;;
16270;SDS011;8243;49.048;8.396;2022-12-04T13:53:58;24.03;;;14.37;;
16270;SDS011;8243;49.048;8.396;2022-12-04T13:56:46;21.50;;;13.93;;
16270;SDS011;8243;49.048;8.396;2022-12-04T14:01:55;21.00;;;15.00;;
16270;SDS011;8243;49.048;8.396;2022-12-04T14:04:24;22.10;;;14.27;;
16270;SDS011;8243;49.048;8.396;2022-12-04T14:06:52;24.33;;;15.53;;
16270;SDS011;8243;49.048;8.396;2022-12-04T14:09:28;20.73;;;15.00;;
16270;SDS011;8243;49.048;8.396;2022-12-04T14:12:02;24.47;;;16.30;;
16270;SDS011;8243;49.048;8.396;2022-12-04T14:14:43;23.93;;;14.43;;
16270;SDS011;8243;49.048;8.396;2022-12-04T14:17:19;22.50;;;16.13;;
16270;SDS011;8243;49.048;8.396;2022-12-04T14:19:56;21.93;;;16.37;;
16270;SDS011;8243;49.048;8.396;2022-12-04T14:27:50;26.13;;;16.20;;
16270;SDS011;8243;49.048;8.396;2022-12-04T14:35:45;26.47;;;17.27;;
16270;SDS011;8243;49.048;8.396;2022-12-04T14:38:15;29.43;;;19.33;;
16270;SDS011;8243;49.048;8.396;2022-12-04T14:40:49;27.83;;;18.23;;
16270;SDS011;8243;49.048;8.396;2022-12-04T14:43:17;22.13;;;15.53;;
16270;SDS011;8243;49.048;8.396;2022-12-04T14:45:47;25.33;;;16.07;;
16270;SDS011;8243;49.048;8.396;2022-12-04T14:57:17;26.13;;;15.37;;
16270;SDS011;8243;49.048;8.396;2022-12-04T15:00:05;24.17;;;14.87;;
16270;SDS011;8243;49.048;8.396;2022-12-04T15:02:40;25.50;;;16.63;;
16270;SDS011;8243;49.048;8.396;2022-12-04T15:05:09;30.47;;;16.87;;
16270;SDS011;8243;49.048;8.396;2022-12-04T15:07:43;30.63;;;17.50;;
16270;SDS011;8243;49.048;8.396;2022-12-04T15:10:16;23.70;;;16.87;;
16270;SDS011;8243;49.048;8.396;2022-12-04T15:13:04;26.13;;;16.20;;
16270;SDS011;8243;49.048;8.396;2022-12-04T15:15:29;25.17;;;16.10;;
16270;SDS011;8243;49.048;8.396;2022-12-04T15:23:12;26.47;;;15.97;;
16270;SDS011;8243;49.048;8.396;2022-12-04T15:25:45;26.80;;;17.67;;
16270;SDS011;8243;49.048;8.396;2022-12-04T15:28:25;34.67;;;20.77;;
16270;SDS011;8243;49.048;8.396;2022-12-04T15:30:52;28.27;;;17.33;;
16270;SDS011;8243;49.048;8.396;2022-12-04T15:33:20;29.67;;;18.57;;
16270;SDS011;8243;49.048;8.396;2022-12-04T15:35:50;30.80;;;19.13;;
16270;SDS011;8243;49.048;8.396;2022-12-04T15:38:25;33.77;;;18.93;;
16270;SDS011;8243;49.048;8.396;2022-12-04T15:40:58;28.03;;;17.63;;
16270;SDS011;8243;49.048;8.396;2022-12-04T15:43:29;30.70;;;18.00;;
16270;SDS011;8243;49.048;8.396;2022-12-04T15:45:56;27.57;;;15.23;;
16270;SDS011;8243;49.048;8.396;2022-12-04T15:48:26;32.13;;;21.03;;
16270;SDS011;8243;49.048;8.396;2022-12-04T15:50:57;32.43;;;18.97;;
16270;SDS011;8243;49.048;8.396;2022-12-04T15:53:30;29.70;;;19.40;;
16270;SDS011;8243;49.048;8.396;2022-12-04T15:55:58;27.60;;;18.90;;
16270;SDS011;8243;49.048;8.396;2022-12-04T15:58:41;29.50;;;18.63;;
16270;SDS011;8243;49.048;8.396;2022-12-04T16:01:25;31.00;;;19.37;;
16270;SDS011;8243;49.048;8.396;2022-12-04T16:03:51;31.33;;;19.33;;
16270;SDS011;8243;49.048;8.396;2022-12-04T16:06:20;33.53;;;21.80;;
16270;SDS011;8243;49.048;8.396;2022-12-04T16:14:01;29.10;;;17.87;;
16270;SDS011;8243;49.048;8.396;2022-12-04T16:16:32;32.13;;;20.60;;
16270;SDS011;8243;49.048;8.396;2022-12-04T16:19:08;30.03;;;19.77;;
16270;SDS011;8243;49.048;8.396;2022-12-04T16:21:48;31.87;;;19.93;;
16270;SDS011;8243;49.048;8.396;2022-12-04T16:24:13;29.77;;;19.43;;
16270;SDS011;8243;49.048;8.396;2022-12-04T16:26:39;27.63;;;18.67;;
16270;SDS011;8243;49.048;8.396;2022-12-04T16:29:05;27.70;;;17.93;;
16270;SDS011;8243;49.048;8.396;2022-12-04T16:31:31;31.73;;;21.77;;
16270;SDS011;8243;49.048;8.396;2022-12-04T16:33:56;33.00;;;19.63;;
16270;SDS011;8243;49.048;8.396;2022-12-04T16:36:22;33.87;;;19.57;;
16270;SDS011;8243;49.048;8.396;2022-12-04T16:38:47;31.60;;;20.23;;
16270;SDS011;8243;49.048;8.396;2022-12-04T16:41:15;33.53;;;19.40;;
16270;SDS011;8243;49.048;8.396;2022-12-04T16:43:42;34.13;;;20.73;;
16270;SDS011;8243;49.048;8.396;2022-12-04T16:46:08;42.30;;;22.67;;
16270;SDS011;8243;49.048;8.396;2022-12-04T16:48:37;43.63;;;24.03;;
16270;SDS011;8243;49.048;8.396;2022-12-04T16:51:03;48.83;;;23.23;;
16270;SDS011;8243;49.048;8.396;2022-12-04T16:53:29;61.80;;;28.17;;
16270;SDS011;8243;49.048;8.396;2022-12-04T16:55:54;66.20;;;29.57;;
16270;SDS011;8243;49.048;8.396;2022-12-04T16:58:20;54.73;;;25.60;;
16270;SDS011;8243;49.048;8.396;2022-12-04T17:00:49;59.70;;;27.23;;
16270;SDS011;8243;49.048;8.396;2022-12-04T17:03:22;60.50;;;28.63;;
16270;SDS011;8243;49.048;8.396;2022-12-04T17:05:50;40.30;;;22.10;;
16270;SDS011;8243;49.048;8.396;2022-12-04T17:08:16;39.80;;;22.43;;
16270;SDS011;8243;49.048;8.396;2022-12-04T17:10:42;35.50;;;21.37;;